sensor_id;sensor_type;location;lat;lon;timestamp;temperature;humidity
43894;DHT22;29556;50.846;4.442;2022-09-03T00:00:54;20.10;61.80
43894;DHT22;29556;50.846;4.442;2022-09-03T00:03:33;20.20;62.50
43894;DHT22;29556;50.846;4.442;2022-09-03T00:06:23;20.10;62.90
43894;DHT22;29556;50.846;4.442;2022-09-03T00:15:04;20.10;63.50
43894;DHT22;29556;50.846;4.442;2022-09-03T00:18:09;20.20;63.60
43894;DHT22;29556;50.846;4.442;2022-09-03T00:24:12;20.20;63.20
43894;DHT22;29556;50.846;4.442;2022-09-03T00:30:16;20.20;63.00
43894;DHT22;29556;50.846;4.442;2022-09-03T00:33:16;20.20;62.90
43894;DHT22;29556;50.846;4.442;2022-09-03T00:36:15;20.20;63.00
43894;DHT22;29556;50.846;4.442;2022-09-03T00:38:42;20.20;63.80
43894;DHT22;29556;50.846;4.442;2022-09-03T00:41:31;20.20;64.00
43894;DHT22;29556;50.846;4.442;2022-09-03T00:47:03;20.20;64.00
43894;DHT22;29556;50.846;4.442;2022-09-03T01:00:45;20.10;63.80
43894;DHT22;29556;50.846;4.442;2022-09-03T01:11:31;20.10;65.00
43894;DHT22;29556;50.846;4.442;2022-09-03T01:16:52;20.10;64.60
43894;DHT22;29556;50.846;4.442;2022-09-03T01:19:53;20.10;64.30
43894;DHT22;29556;50.846;4.442;2022-09-03T01:28:26;20.10;64.00
43894;DHT22;29556;50.846;4.442;2022-09-03T01:42:22;20.10;65.10
43894;DHT22;29556;50.846;4.442;2022-09-03T01:45:15;20.20;65.30
43894;DHT22;29556;50.846;4.442;2022-09-03T01:50:45;20.10;65.20
43894;DHT22;29556;50.846;4.442;2022-09-03T01:59:11;20.20;65.00
43894;DHT22;29556;50.846;4.442;2022-09-03T02:02:10;20.20;64.90
43894;DHT22;29556;50.846;4.442;2022-09-03T02:04:34;20.20;64.50
43894;DHT22;29556;50.846;4.442;2022-09-03T02:07:02;20.10;64.30
43894;DHT22;29556;50.846;4.442;2022-09-03T02:09:28;20.10;64.70
43894;DHT22;29556;50.846;4.442;2022-09-03T02:12:10;20.10;64.80
43894;DHT22;29556;50.846;4.442;2022-09-03T02:14:39;20.10;65.00
43894;DHT22;29556;50.846;4.442;2022-09-03T02:17:06;20.10;65.00
43894;DHT22;29556;50.846;4.442;2022-09-03T02:19:32;20.20;65.00
43894;DHT22;29556;50.846;4.442;2022-09-03T02:21:59;20.10;65.10
43894;DHT22;29556;50.846;4.442;2022-09-03T02:24:26;20.20;65.70
43894;DHT22;29556;50.846;4.442;2022-09-03T02:26:52;20.10;65.80
43894;DHT22;29556;50.846;4.442;2022-09-03T02:29:22;20.10;65.60
43894;DHT22;29556;50.846;4.442;2022-09-03T02:31:58;20.20;65.50
43894;DHT22;29556;50.846;4.442;2022-09-03T02:34:28;20.20;65.30
43894;DHT22;29556;50.846;4.442;2022-09-03T02:36:55;20.10;65.20
43894;DHT22;29556;50.846;4.442;2022-09-03T02:39:21;20.10;65.50
43894;DHT22;29556;50.846;4.442;2022-09-03T02:41:53;20.10;65.60
43894;DHT22;29556;50.846;4.442;2022-09-03T02:44:29;20.10;65.90
43894;DHT22;29556;50.846;4.442;2022-09-03T02:47:01;20.10;65.90
43894;DHT22;29556;50.846;4.442;2022-09-03T02:49:28;20.10;66.00
43894;DHT22;29556;50.846;4.442;2022-09-03T02:52:04;20.10;66.20
43894;DHT22;29556;50.846;4.442;2022-09-03T02:54:35;20.10;66.30
43894;DHT22;29556;50.846;4.442;2022-09-03T02:57:06;20.10;65.30
43894;DHT22;29556;50.846;4.442;2022-09-03T02:59:32;20.10;65.80
43894;DHT22;29556;50.846;4.442;2022-09-03T03:01:58;20.10;66.20
43894;DHT22;29556;50.846;4.442;2022-09-03T03:04:23;20.10;66.30
43894;DHT22;29556;50.846;4.442;2022-09-03T03:06:49;20.10;66.50
43894;DHT22;29556;50.846;4.442;2022-09-03T03:09:16;20.10;66.60
43894;DHT22;29556;50.846;4.442;2022-09-03T03:11:43;20.10;66.70
43894;DHT22;29556;50.846;4.442;2022-09-03T03:14:08;20.10;66.80
43894;DHT22;29556;50.846;4.442;2022-09-03T03:16:35;20.10;66.90
43894;DHT22;29556;50.846;4.442;2022-09-03T03:19:01;20.10;67.00
43894;DHT22;29556;50.846;4.442;2022-09-03T03:21:26;20.10;67.20
43894;DHT22;29556;50.846;4.442;2022-09-03T03:23:52;20.10;67.00
43894;DHT22;29556;50.846;4.442;2022-09-03T03:26:20;20.00;67.10
43894;DHT22;29556;50.846;4.442;2022-09-03T03:28:48;20.10;67.10
43894;DHT22;29556;50.846;4.442;2022-09-03T03:31:20;20.00;66.20
43894;DHT22;29556;50.846;4.442;2022-09-03T03:33:53;20.00;66.60
43894;DHT22;29556;50.846;4.442;2022-09-03T03:36:20;20.10;66.90
43894;DHT22;29556;50.846;4.442;2022-09-03T03:38:46;20.10;66.30
43894;DHT22;29556;50.846;4.442;2022-09-03T03:41:17;20.10;66.40
43894;DHT22;29556;50.846;4.442;2022-09-03T03:43:43;20.20;66.50
43894;DHT22;29556;50.846;4.442;2022-09-03T03:46:10;20.10;66.30
43894;DHT22;29556;50.846;4.442;2022-09-03T03:48:37;20.00;66.40
43894;DHT22;29556;50.846;4.442;2022-09-03T03:51:06;20.10;66.90
43894;DHT22;29556;50.846;4.442;2022-09-03T03:53:33;20.10;67.10
43894;DHT22;29556;50.846;4.442;2022-09-03T03:56:01;20.10;67.40
43894;DHT22;29556;50.846;4.442;2022-09-03T03:58:28;20.10;67.40
43894;DHT22;29556;50.846;4.442;2022-09-03T04:01:06;20.10;67.50
43894;DHT22;29556;50.846;4.442;2022-09-03T04:03:33;20.10;67.80
43894;DHT22;29556;50.846;4.442;2022-09-03T04:06:00;20.10;68.70
43894;DHT22;29556;50.846;4.442;2022-09-03T04:08:38;20.10;69.60
43894;DHT22;29556;50.846;4.442;2022-09-03T04:11:15;20.00;71.40
43894;DHT22;29556;50.846;4.442;2022-09-03T04:13:42;19.80;72.40
43894;DHT22;29556;50.846;4.442;2022-09-03T04:16:10;19.90;72.70
43894;DHT22;29556;50.846;4.442;2022-09-03T04:18:37;19.90;73.60
43894;DHT22;29556;50.846;4.442;2022-09-03T04:21:38;20.00;74.10
43894;DHT22;29556;50.846;4.442;2022-09-03T04:24:06;20.10;75.20
43894;DHT22;29556;50.846;4.442;2022-09-03T04:29:13;20.00;75.20
43894;DHT22;29556;50.846;4.442;2022-09-03T04:31:39;19.90;75.30
43894;DHT22;29556;50.846;4.442;2022-09-03T04:34:24;19.90;76.10
43894;DHT22;29556;50.846;4.442;2022-09-03T04:36:50;20.00;76.60
43894;DHT22;29556;50.846;4.442;2022-09-03T04:39:16;19.80;76.40
43894;DHT22;29556;50.846;4.442;2022-09-03T04:41:51;19.90;77.00
43894;DHT22;29556;50.846;4.442;2022-09-03T04:44:17;19.90;77.40
43894;DHT22;29556;50.846;4.442;2022-09-03T04:46:49;19.80;77.60
43894;DHT22;29556;50.846;4.442;2022-09-03T04:49:15;19.80;78.00
43894;DHT22;29556;50.846;4.442;2022-09-03T04:51:45;19.80;77.70
43894;DHT22;29556;50.846;4.442;2022-09-03T04:54:20;19.80;78.30
43894;DHT22;29556;50.846;4.442;2022-09-03T05:04:26;19.70;79.20
43894;DHT22;29556;50.846;4.442;2022-09-03T05:06:52;19.70;79.20
43894;DHT22;29556;50.846;4.442;2022-09-03T05:09:20;19.70;79.20
43894;DHT22;29556;50.846;4.442;2022-09-03T05:11:46;19.70;79.60
43894;DHT22;29556;50.846;4.442;2022-09-03T05:14:13;19.70;79.50
43894;DHT22;29556;50.846;4.442;2022-09-03T05:16:40;19.70;79.60
43894;DHT22;29556;50.846;4.442;2022-09-03T05:19:06;19.60;79.80
43894;DHT22;29556;50.846;4.442;2022-09-03T05:21:44;19.70;80.00
43894;DHT22;29556;50.846;4.442;2022-09-03T05:24:10;19.60;80.20
43894;DHT22;29556;50.846;4.442;2022-09-03T05:26:38;19.60;80.40
43894;DHT22;29556;50.846;4.442;2022-09-03T05:29:06;19.60;80.40
43894;DHT22;29556;50.846;4.442;2022-09-03T05:31:36;19.60;80.30
43894;DHT22;29556;50.846;4.442;2022-09-03T05:34:20;19.50;80.50
43894;DHT22;29556;50.846;4.442;2022-09-03T05:36:50;19.50;81.00
43894;DHT22;29556;50.846;4.442;2022-09-03T05:39:23;19.50;81.40
43894;DHT22;29556;50.846;4.442;2022-09-03T05:44:26;19.50;81.00
43894;DHT22;29556;50.846;4.442;2022-09-03T05:47:03;19.50;81.60
43894;DHT22;29556;50.846;4.442;2022-09-03T05:49:33;19.50;81.40
43894;DHT22;29556;50.846;4.442;2022-09-03T05:51:59;19.40;81.30
43894;DHT22;29556;50.846;4.442;2022-09-03T05:54:26;19.60;81.60
43894;DHT22;29556;50.846;4.442;2022-09-03T05:57:07;19.60;81.60
43894;DHT22;29556;50.846;4.442;2022-09-03T05:59:37;19.60;81.50
43894;DHT22;29556;50.846;4.442;2022-09-03T06:02:07;19.60;81.40
43894;DHT22;29556;50.846;4.442;2022-09-03T06:04:33;19.70;81.40
43894;DHT22;29556;50.846;4.442;2022-09-03T06:07:04;19.70;81.50
43894;DHT22;29556;50.846;4.442;2022-09-03T06:09:32;19.70;81.50
43894;DHT22;29556;50.846;4.442;2022-09-03T06:12:02;19.70;81.80
43894;DHT22;29556;50.846;4.442;2022-09-03T06:14:43;19.80;82.00
43894;DHT22;29556;50.846;4.442;2022-09-03T06:17:17;19.80;82.00
43894;DHT22;29556;50.846;4.442;2022-09-03T06:19:44;19.80;82.10
43894;DHT22;29556;50.846;4.442;2022-09-03T06:25:11;19.90;82.30
43894;DHT22;29556;50.846;4.442;2022-09-03T06:27:49;20.00;82.40
43894;DHT22;29556;50.846;4.442;2022-09-03T06:30:44;20.00;82.40
43894;DHT22;29556;50.846;4.442;2022-09-03T06:38:56;20.10;82.00
43894;DHT22;29556;50.846;4.442;2022-09-03T06:41:26;20.20;82.20
43894;DHT22;29556;50.846;4.442;2022-09-03T06:44:31;20.10;82.20
43894;DHT22;29556;50.846;4.442;2022-09-03T06:47:19;20.20;82.80
43894;DHT22;29556;50.846;4.442;2022-09-03T06:49:47;20.30;82.00
43894;DHT22;29556;50.846;4.442;2022-09-03T06:52:31;20.20;82.20
43894;DHT22;29556;50.846;4.442;2022-09-03T06:55:24;20.40;82.30
43894;DHT22;29556;50.846;4.442;2022-09-03T06:58:38;20.40;82.30
43894;DHT22;29556;50.846;4.442;2022-09-03T07:01:21;20.60;82.20
43894;DHT22;29556;50.846;4.442;2022-09-03T07:03:58;20.60;82.00
43894;DHT22;29556;50.846;4.442;2022-09-03T07:07:38;20.70;81.80
43894;DHT22;29556;50.846;4.442;2022-09-03T07:11:07;20.80;81.10
43894;DHT22;29556;50.846;4.442;2022-09-03T07:14:09;20.90;80.80
43894;DHT22;29556;50.846;4.442;2022-09-03T07:20:26;20.90;80.90
43894;DHT22;29556;50.846;4.442;2022-09-03T07:22:55;21.10;80.90
43894;DHT22;29556;50.846;4.442;2022-09-03T07:25:25;21.10;80.70
43894;DHT22;29556;50.846;4.442;2022-09-03T07:28:04;21.20;80.70
43894;DHT22;29556;50.846;4.442;2022-09-03T07:30:39;21.30;80.40
43894;DHT22;29556;50.846;4.442;2022-09-03T07:33:22;21.30;80.20
43894;DHT22;29556;50.846;4.442;2022-09-03T07:36:26;21.40;79.90
43894;DHT22;29556;50.846;4.442;2022-09-03T07:38:58;21.50;79.60
43894;DHT22;29556;50.846;4.442;2022-09-03T07:41:25;21.50;79.10
43894;DHT22;29556;50.846;4.442;2022-09-03T07:43:52;21.60;78.40
43894;DHT22;29556;50.846;4.442;2022-09-03T07:46:22;21.60;78.20
43894;DHT22;29556;50.846;4.442;2022-09-03T07:48:53;21.70;78.20
43894;DHT22;29556;50.846;4.442;2022-09-03T07:51:22;21.70;77.90
43894;DHT22;29556;50.846;4.442;2022-09-03T07:53:53;21.80;77.10
43894;DHT22;29556;50.846;4.442;2022-09-03T07:56:25;21.80;76.80
43894;DHT22;29556;50.846;4.442;2022-09-03T07:58:51;21.80;77.00
43894;DHT22;29556;50.846;4.442;2022-09-03T08:01:21;21.90;77.20
43894;DHT22;29556;50.846;4.442;2022-09-03T08:03:51;21.90;77.30
43894;DHT22;29556;50.846;4.442;2022-09-03T08:06:20;21.90;77.40
43894;DHT22;29556;50.846;4.442;2022-09-03T08:08:46;22.00;77.00
43894;DHT22;29556;50.846;4.442;2022-09-03T08:11:15;22.10;76.60
43894;DHT22;29556;50.846;4.442;2022-09-03T08:14:03;22.00;75.80
43894;DHT22;29556;50.846;4.442;2022-09-03T08:16:38;22.20;76.00
43894;DHT22;29556;50.846;4.442;2022-09-03T08:19:04;22.30;76.30
43894;DHT22;29556;50.846;4.442;2022-09-03T08:21:33;22.40;76.20
43894;DHT22;29556;50.846;4.442;2022-09-03T08:23:59;22.40;75.20
43894;DHT22;29556;50.846;4.442;2022-09-03T08:26:40;22.40;75.00
43894;DHT22;29556;50.846;4.442;2022-09-03T08:29:07;22.60;75.00
43894;DHT22;29556;50.846;4.442;2022-09-03T08:31:34;22.70;74.40
43894;DHT22;29556;50.846;4.442;2022-09-03T08:34:02;22.70;73.70
43894;DHT22;29556;50.846;4.442;2022-09-03T08:36:34;22.80;73.40
43894;DHT22;29556;50.846;4.442;2022-09-03T08:39:04;22.80;72.60
43894;DHT22;29556;50.846;4.442;2022-09-03T08:44:53;23.00;73.70
43894;DHT22;29556;50.846;4.442;2022-09-03T08:52:44;23.20;72.30
43894;DHT22;29556;50.846;4.442;2022-09-03T08:55:30;23.20;71.30
43894;DHT22;29556;50.846;4.442;2022-09-03T09:20:51;23.80;69.70
43894;DHT22;29556;50.846;4.442;2022-09-03T09:23:48;23.70;68.20
43894;DHT22;29556;50.846;4.442;2022-09-03T09:26:18;23.80;68.20
43894;DHT22;29556;50.846;4.442;2022-09-03T09:28:53;23.80;68.10
43894;DHT22;29556;50.846;4.442;2022-09-03T09:31:28;23.90;68.00
43894;DHT22;29556;50.846;4.442;2022-09-03T09:34:02;23.90;66.00
43894;DHT22;29556;50.846;4.442;2022-09-03T09:36:29;24.00;67.80
43894;DHT22;29556;50.846;4.442;2022-09-03T09:38:55;24.00;67.50
43894;DHT22;29556;50.846;4.442;2022-09-03T09:41:21;24.00;66.80
43894;DHT22;29556;50.846;4.442;2022-09-03T09:43:59;23.90;65.50
43894;DHT22;29556;50.846;4.442;2022-09-03T09:46:49;23.90;67.00
43894;DHT22;29556;50.846;4.442;2022-09-03T09:49:37;23.90;64.60
43894;DHT22;29556;50.846;4.442;2022-09-03T09:52:12;23.80;66.40
43894;DHT22;29556;50.846;4.442;2022-09-03T09:54:41;23.80;66.10
43894;DHT22;29556;50.846;4.442;2022-09-03T09:57:21;23.80;66.50
43894;DHT22;29556;50.846;4.442;2022-09-03T10:00:08;23.80;66.90
43894;DHT22;29556;50.846;4.442;2022-09-03T10:08:00;23.70;67.30
43894;DHT22;29556;50.846;4.442;2022-09-03T10:10:27;23.70;67.00
43894;DHT22;29556;50.846;4.442;2022-09-03T10:13:07;23.70;68.20
43894;DHT22;29556;50.846;4.442;2022-09-03T10:23:22;24.00;68.50
43894;DHT22;29556;50.846;4.442;2022-09-03T10:26:07;24.00;65.30
43894;DHT22;29556;50.846;4.442;2022-09-03T10:28:38;24.10;65.80
43894;DHT22;29556;50.846;4.442;2022-09-03T10:34:23;24.30;66.50
43894;DHT22;29556;50.846;4.442;2022-09-03T10:37:19;24.20;65.20
43894;DHT22;29556;50.846;4.442;2022-09-03T10:40:30;24.20;66.10
43894;DHT22;29556;50.846;4.442;2022-09-03T10:43:06;24.30;66.10
43894;DHT22;29556;50.846;4.442;2022-09-03T10:51:26;24.50;65.80
43894;DHT22;29556;50.846;4.442;2022-09-03T10:56:31;24.40;65.00
43894;DHT22;29556;50.846;4.442;2022-09-03T11:09:32;24.60;65.20
43894;DHT22;29556;50.846;4.442;2022-09-03T11:12:07;24.70;64.70
43894;DHT22;29556;50.846;4.442;2022-09-03T11:14:48;24.60;64.70
43894;DHT22;29556;50.846;4.442;2022-09-03T11:17:22;24.70;65.40
43894;DHT22;29556;50.846;4.442;2022-09-03T11:22:40;24.80;62.00
43894;DHT22;29556;50.846;4.442;2022-09-03T11:25:07;24.70;60.80
43894;DHT22;29556;50.846;4.442;2022-09-03T11:30:23;24.80;63.10
43894;DHT22;29556;50.846;4.442;2022-09-03T11:33:05;25.00;63.10
43894;DHT22;29556;50.846;4.442;2022-09-03T11:38:19;24.90;63.10
43894;DHT22;29556;50.846;4.442;2022-09-03T11:41:21;24.80;62.10
43894;DHT22;29556;50.846;4.442;2022-09-03T11:43:51;24.80;62.80
43894;DHT22;29556;50.846;4.442;2022-09-03T11:49:11;24.70;63.20
43894;DHT22;29556;50.846;4.442;2022-09-03T11:51:39;24.80;63.40
43894;DHT22;29556;50.846;4.442;2022-09-03T11:56:39;24.90;64.00
43894;DHT22;29556;50.846;4.442;2022-09-03T12:01:42;25.00;63.50
43894;DHT22;29556;50.846;4.442;2022-09-03T12:04:13;25.00;63.20
43894;DHT22;29556;50.846;4.442;2022-09-03T12:15:27;25.20;58.80
43894;DHT22;29556;50.846;4.442;2022-09-03T12:18:20;25.30;58.90
43894;DHT22;29556;50.846;4.442;2022-09-03T12:23:44;25.80;60.10
43894;DHT22;29556;50.846;4.442;2022-09-03T12:26:14;26.10;59.40
43894;DHT22;29556;50.846;4.442;2022-09-03T12:28:50;26.20;59.70
43894;DHT22;29556;50.846;4.442;2022-09-03T12:31:18;26.50;59.90
43894;DHT22;29556;50.846;4.442;2022-09-03T12:34:11;26.60;59.70
43894;DHT22;29556;50.846;4.442;2022-09-03T12:36:42;27.00;57.20
43894;DHT22;29556;50.846;4.442;2022-09-03T12:39:19;27.00;56.80
43894;DHT22;29556;50.846;4.442;2022-09-03T12:44:27;27.40;58.00
43894;DHT22;29556;50.846;4.442;2022-09-03T12:47:01;27.50;57.40
43894;DHT22;29556;50.846;4.442;2022-09-03T12:49:37;27.60;57.10
43894;DHT22;29556;50.846;4.442;2022-09-03T12:52:14;27.60;57.30
43894;DHT22;29556;50.846;4.442;2022-09-03T12:58:09;27.50;56.70
43894;DHT22;29556;50.846;4.442;2022-09-03T13:00:45;27.30;55.50
43894;DHT22;29556;50.846;4.442;2022-09-03T13:03:56;27.30;55.10
43894;DHT22;29556;50.846;4.442;2022-09-03T13:06:25;27.30;54.70
43894;DHT22;29556;50.846;4.442;2022-09-03T13:08:58;27.40;55.20
43894;DHT22;29556;50.846;4.442;2022-09-03T13:11:40;27.50;54.20
43894;DHT22;29556;50.846;4.442;2022-09-03T13:14:47;27.50;53.40
43894;DHT22;29556;50.846;4.442;2022-09-03T13:21:28;27.30;53.90
43894;DHT22;29556;50.846;4.442;2022-09-03T13:35:48;27.20;53.20
43894;DHT22;29556;50.846;4.442;2022-09-03T13:38:31;27.30;54.90
43894;DHT22;29556;50.846;4.442;2022-09-03T13:41:17;27.10;54.70
43894;DHT22;29556;50.846;4.442;2022-09-03T13:46:58;26.80;52.90
43894;DHT22;29556;50.846;4.442;2022-09-03T13:52:56;27.00;53.70
43894;DHT22;29556;50.846;4.442;2022-09-03T13:55:43;27.30;54.30
43894;DHT22;29556;50.846;4.442;2022-09-03T14:02:05;27.00;52.80
43894;DHT22;29556;50.846;4.442;2022-09-03T14:10:59;27.00;54.80
43894;DHT22;29556;50.846;4.442;2022-09-03T14:13:57;26.90;55.20
43894;DHT22;29556;50.846;4.442;2022-09-03T14:20:03;26.80;56.20
43894;DHT22;29556;50.846;4.442;2022-09-03T14:25:28;26.70;56.40
43894;DHT22;29556;50.846;4.442;2022-09-03T14:28:25;26.60;56.80
43894;DHT22;29556;50.846;4.442;2022-09-03T14:55:51;26.30;62.50
43894;DHT22;29556;50.846;4.442;2022-09-03T15:01:34;26.10;66.60
43894;DHT22;29556;50.846;4.442;2022-09-03T15:04:24;26.10;67.80
43894;DHT22;29556;50.846;4.442;2022-09-03T15:10:30;25.90;69.20
43894;DHT22;29556;50.846;4.442;2022-09-03T15:13:06;25.80;69.90
43894;DHT22;29556;50.846;4.442;2022-09-03T15:18:29;25.80;71.10
43894;DHT22;29556;50.846;4.442;2022-09-03T15:32:31;25.30;72.50
43894;DHT22;29556;50.846;4.442;2022-09-03T15:37:51;25.40;73.30
43894;DHT22;29556;50.846;4.442;2022-09-03T15:43:37;25.40;73.80
43894;DHT22;29556;50.846;4.442;2022-09-03T15:46:05;25.40;74.20
43894;DHT22;29556;50.846;4.442;2022-09-03T15:48:47;25.30;74.20
43894;DHT22;29556;50.846;4.442;2022-09-03T15:51:56;25.30;74.50
43894;DHT22;29556;50.846;4.442;2022-09-03T15:57:20;25.30;75.10
43894;DHT22;29556;50.846;4.442;2022-09-03T16:00:10;25.30;75.20
43894;DHT22;29556;50.846;4.442;2022-09-03T16:08:27;25.10;73.40
43894;DHT22;29556;50.846;4.442;2022-09-03T16:19:45;25.00;75.50
43894;DHT22;29556;50.846;4.442;2022-09-03T16:22:21;25.00;75.90
43894;DHT22;29556;50.846;4.442;2022-09-03T16:24:56;24.90;75.80
43894;DHT22;29556;50.846;4.442;2022-09-03T16:30:07;25.00;76.90
43894;DHT22;29556;50.846;4.442;2022-09-03T16:35:16;25.20;77.60
43894;DHT22;29556;50.846;4.442;2022-09-03T16:40:36;25.10;76.70
43894;DHT22;29556;50.846;4.442;2022-09-03T16:48:44;24.80;76.20
43894;DHT22;29556;50.846;4.442;2022-09-03T16:54:14;24.50;76.40
43894;DHT22;29556;50.846;4.442;2022-09-03T16:57:22;24.40;76.70
43894;DHT22;29556;50.846;4.442;2022-09-03T17:00:02;24.40;76.60
43894;DHT22;29556;50.846;4.442;2022-09-03T17:02:57;24.20;77.40
43894;DHT22;29556;50.846;4.442;2022-09-03T17:09:06;24.00;78.50
43894;DHT22;29556;50.846;4.442;2022-09-03T17:11:42;24.00;78.90
43894;DHT22;29556;50.846;4.442;2022-09-03T17:28:01;23.90;79.90
43894;DHT22;29556;50.846;4.442;2022-09-03T17:36:15;23.90;79.90
43894;DHT22;29556;50.846;4.442;2022-09-03T17:39:22;23.90;79.70
43894;DHT22;29556;50.846;4.442;2022-09-03T17:42:00;23.90;79.20
43894;DHT22;29556;50.846;4.442;2022-09-03T17:44:58;23.80;78.90
43894;DHT22;29556;50.846;4.442;2022-09-03T17:50:30;23.70;79.10
43894;DHT22;29556;50.846;4.442;2022-09-03T17:53:08;23.60;79.50
43894;DHT22;29556;50.846;4.442;2022-09-03T17:55:41;23.60;79.70
43894;DHT22;29556;50.846;4.442;2022-09-03T17:58:13;23.50;79.70
43894;DHT22;29556;50.846;4.442;2022-09-03T18:03:20;23.40;79.80
43894;DHT22;29556;50.846;4.442;2022-09-03T18:06:08;23.40;79.80
43894;DHT22;29556;50.846;4.442;2022-09-03T18:11:38;23.30;79.70
43894;DHT22;29556;50.846;4.442;2022-09-03T18:16:36;23.20;79.50
43894;DHT22;29556;50.846;4.442;2022-09-03T18:19:16;23.10;79.40
43894;DHT22;29556;50.846;4.442;2022-09-03T18:21:46;23.00;79.70
43894;DHT22;29556;50.846;4.442;2022-09-03T18:24:42;22.90;80.20
43894;DHT22;29556;50.846;4.442;2022-09-03T18:27:46;22.80;80.40
43894;DHT22;29556;50.846;4.442;2022-09-03T18:30:33;22.80;80.70
43894;DHT22;29556;50.846;4.442;2022-09-03T18:33:22;22.70;80.40
43894;DHT22;29556;50.846;4.442;2022-09-03T18:36:07;22.70;80.40
43894;DHT22;29556;50.846;4.442;2022-09-03T18:39:00;22.60;80.10
43894;DHT22;29556;50.846;4.442;2022-09-03T18:47:54;22.40;80.60
43894;DHT22;29556;50.846;4.442;2022-09-03T18:54:06;22.40;80.50
43894;DHT22;29556;50.846;4.442;2022-09-03T18:56:54;22.30;80.20
43894;DHT22;29556;50.846;4.442;2022-09-03T19:00:05;22.30;80.10
43894;DHT22;29556;50.846;4.442;2022-09-03T19:03:02;22.20;78.30
43894;DHT22;29556;50.846;4.442;2022-09-03T19:06:07;22.20;79.60
43894;DHT22;29556;50.846;4.442;2022-09-03T19:12:36;22.10;79.60
43894;DHT22;29556;50.846;4.442;2022-09-03T19:15:38;22.10;80.10
43894;DHT22;29556;50.846;4.442;2022-09-03T19:22:01;22.10;80.40
43894;DHT22;29556;50.846;4.442;2022-09-03T19:24:51;22.10;80.90
43894;DHT22;29556;50.846;4.442;2022-09-03T19:27:54;22.10;81.30
43894;DHT22;29556;50.846;4.442;2022-09-03T19:37:03;22.10;80.80
43894;DHT22;29556;50.846;4.442;2022-09-03T19:46:09;21.90;80.80
43894;DHT22;29556;50.846;4.442;2022-09-03T19:52:37;21.80;80.90
43894;DHT22;29556;50.846;4.442;2022-09-03T19:55:26;21.70;80.70
43894;DHT22;29556;50.846;4.442;2022-09-03T19:58:17;21.70;80.80
43894;DHT22;29556;50.846;4.442;2022-09-03T20:01:02;21.60;81.20
43894;DHT22;29556;50.846;4.442;2022-09-03T20:03:49;21.60;81.50
43894;DHT22;29556;50.846;4.442;2022-09-03T20:06:35;21.50;81.60
43894;DHT22;29556;50.846;4.442;2022-09-03T20:09:22;21.50;81.70
43894;DHT22;29556;50.846;4.442;2022-09-03T20:12:09;21.40;81.50
43894;DHT22;29556;50.846;4.442;2022-09-03T20:14:37;21.40;81.60
43894;DHT22;29556;50.846;4.442;2022-09-03T20:20:09;21.30;81.70
43894;DHT22;29556;50.846;4.442;2022-09-03T20:22:52;21.30;81.90
43894;DHT22;29556;50.846;4.442;2022-09-03T20:31:01;21.10;82.30
43894;DHT22;29556;50.846;4.442;2022-09-03T20:36:46;21.10;82.60
43894;DHT22;29556;50.846;4.442;2022-09-03T20:42:39;21.00;83.00
43894;DHT22;29556;50.846;4.442;2022-09-03T20:45:36;20.90;83.10
43894;DHT22;29556;50.846;4.442;2022-09-03T20:51:22;20.90;83.00
43894;DHT22;29556;50.846;4.442;2022-09-03T21:02:21;20.70;83.50
43894;DHT22;29556;50.846;4.442;2022-09-03T21:05:21;20.70;83.50
43894;DHT22;29556;50.846;4.442;2022-09-03T21:13:12;20.60;83.80
43894;DHT22;29556;50.846;4.442;2022-09-03T21:21:01;20.60;83.80
43894;DHT22;29556;50.846;4.442;2022-09-03T21:23:46;20.50;83.60
43894;DHT22;29556;50.846;4.442;2022-09-03T21:26:20;20.50;83.70
43894;DHT22;29556;50.846;4.442;2022-09-03T21:29:00;20.50;83.90
43894;DHT22;29556;50.846;4.442;2022-09-03T21:31:50;20.40;83.80
43894;DHT22;29556;50.846;4.442;2022-09-03T21:34:42;20.40;83.90
43894;DHT22;29556;50.846;4.442;2022-09-03T21:37:19;20.40;84.00
43894;DHT22;29556;50.846;4.442;2022-09-03T21:39:54;20.40;84.10
43894;DHT22;29556;50.846;4.442;2022-09-03T21:42:33;20.40;84.10
43894;DHT22;29556;50.846;4.442;2022-09-03T21:48:02;20.30;84.00
43894;DHT22;29556;50.846;4.442;2022-09-03T21:50:30;20.30;84.10
43894;DHT22;29556;50.846;4.442;2022-09-03T22:04:08;20.20;84.20
43894;DHT22;29556;50.846;4.442;2022-09-03T22:06:52;20.20;84.30
43894;DHT22;29556;50.846;4.442;2022-09-03T22:12:15;20.20;84.30
43894;DHT22;29556;50.846;4.442;2022-09-03T22:14:45;20.20;84.10
43894;DHT22;29556;50.846;4.442;2022-09-03T22:20:27;20.20;84.00
43894;DHT22;29556;50.846;4.442;2022-09-03T22:22:59;20.10;84.20
43894;DHT22;29556;50.846;4.442;2022-09-03T22:25:43;20.10;84.40
43894;DHT22;29556;50.846;4.442;2022-09-03T22:28:21;20.10;84.30
43894;DHT22;29556;50.846;4.442;2022-09-03T22:30:59;20.10;84.30
43894;DHT22;29556;50.846;4.442;2022-09-03T22:33:48;20.00;84.30
43894;DHT22;29556;50.846;4.442;2022-09-03T22:36:46;20.00;84.20
43894;DHT22;29556;50.846;4.442;2022-09-03T22:46:53;19.90;84.60
43894;DHT22;29556;50.846;4.442;2022-09-03T22:49:44;19.90;84.50
43894;DHT22;29556;50.846;4.442;2022-09-03T22:52:24;19.90;84.70
43894;DHT22;29556;50.846;4.442;2022-09-03T22:55:31;19.90;84.70
43894;DHT22;29556;50.846;4.442;2022-09-03T22:58:07;19.90;84.60
43894;DHT22;29556;50.846;4.442;2022-09-03T23:00:49;19.90;84.60
43894;DHT22;29556;50.846;4.442;2022-09-03T23:03:29;19.80;84.70
43894;DHT22;29556;50.846;4.442;2022-09-03T23:06:03;19.80;84.80
43894;DHT22;29556;50.846;4.442;2022-09-03T23:08:42;19.80;84.80
43894;DHT22;29556;50.846;4.442;2022-09-03T23:13:58;19.80;84.80
43894;DHT22;29556;50.846;4.442;2022-09-03T23:18:56;19.70;84.90
43894;DHT22;29556;50.846;4.442;2022-09-03T23:21:35;19.70;85.10
43894;DHT22;29556;50.846;4.442;2022-09-03T23:24:13;19.70;84.90
43894;DHT22;29556;50.846;4.442;2022-09-03T23:26:47;19.70;84.90
43894;DHT22;29556;50.846;4.442;2022-09-03T23:31:51;19.70;84.80
43894;DHT22;29556;50.846;4.442;2022-09-03T23:34:19;19.70;85.00
43894;DHT22;29556;50.846;4.442;2022-09-03T23:37:20;19.70;85.10
43894;DHT22;29556;50.846;4.442;2022-09-03T23:39:57;19.70;85.00
43894;DHT22;29556;50.846;4.442;2022-09-03T23:47:47;19.70;85.20
43894;DHT22;29556;50.846;4.442;2022-09-03T23:59:10;19.60;85.30
